createdAt,value
2019-05-05T00:01:09.597Z,4.20
2019-05-05T00:03:46.549Z,4.30
2019-05-05T00:06:16.309Z,4.30
2019-05-05T00:08:45.984Z,4.20
2019-05-05T00:11:38.401Z,4.20
2019-05-05T00:14:30.089Z,4.20
2019-05-05T00:17:05.434Z,4.10
2019-05-05T00:19:35.856Z,4.10
2019-05-05T00:22:05.714Z,4.20
2019-05-05T00:24:35.366Z,4.10
2019-05-05T00:27:05.122Z,4.10
2019-05-05T00:29:34.815Z,4.20
2019-05-05T00:32:05.052Z,4.10
2019-05-05T00:34:35.075Z,4.00
2019-05-05T00:37:04.845Z,4.00
2019-05-05T00:39:34.613Z,4.00
2019-05-05T00:42:05.332Z,4.00
2019-05-05T00:44:35.289Z,4.00
2019-05-05T00:47:22.347Z,4.00
2019-05-05T00:49:53.144Z,4.00
2019-05-05T00:52:24.533Z,3.90
2019-05-05T00:54:55.561Z,4.00
2019-05-05T00:57:25.347Z,3.90
2019-05-05T00:59:55.024Z,3.90
2019-05-05T01:02:37.030Z,3.90
2019-05-05T01:05:35.757Z,3.90
2019-05-05T01:08:08.838Z,3.80
2019-05-05T01:10:38.613Z,3.80
2019-05-05T01:13:08.543Z,3.70
2019-05-05T01:15:38.312Z,3.70
2019-05-05T01:18:08.004Z,3.60
2019-05-05T01:20:37.647Z,3.60
2019-05-05T01:23:07.293Z,3.50
2019-05-05T01:25:37.052Z,3.60
2019-05-05T01:28:06.898Z,3.70
2019-05-05T01:30:38.253Z,3.60
2019-05-05T01:33:20.380Z,3.60
2019-05-05T01:35:50.016Z,3.60
2019-05-05T01:38:35.047Z,3.60
2019-05-05T01:41:14.766Z,3.60
2019-05-05T01:43:45.214Z,3.50
2019-05-05T01:46:15.078Z,3.60
2019-05-05T01:48:44.680Z,3.60
2019-05-05T01:51:14.448Z,3.50
2019-05-05T01:53:44.349Z,3.40
2019-05-05T01:56:15.444Z,3.40
2019-05-05T01:58:45.115Z,3.40
2019-05-05T02:01:15.309Z,3.40
2019-05-05T02:03:45.334Z,3.30
2019-05-05T02:06:14.951Z,3.30
2019-05-05T02:08:45.462Z,3.30
2019-05-05T02:11:15.707Z,3.30
2019-05-05T02:13:45.515Z,3.30
2019-05-05T02:16:15.168Z,3.30
2019-05-05T02:18:45.132Z,3.30
2019-05-05T02:21:14.891Z,3.20
2019-05-05T02:23:45.323Z,3.20
2019-05-05T02:26:15.426Z,3.20
2019-05-05T02:29:06.963Z,3.30
2019-05-05T02:32:06.214Z,3.20
2019-05-05T02:34:39.855Z,3.20
2019-05-05T02:37:09.458Z,3.10
2019-05-05T02:39:45.041Z,3.10
2019-05-05T02:42:14.455Z,3.20
2019-05-05T02:44:45.543Z,3.10
2019-05-05T02:47:25.851Z,3.10
2019-05-05T02:49:58.496Z,3.10
2019-05-05T02:52:28.438Z,3.00
2019-05-05T02:54:58.456Z,3.00
2019-05-05T02:57:28.552Z,3.00
2019-05-05T03:00:04.479Z,3.00
2019-05-05T03:02:35.950Z,3.00
2019-05-05T03:05:06.246Z,3.00
2019-05-05T03:07:36.716Z,3.00
2019-05-05T03:10:07.401Z,2.90
2019-05-05T03:12:39.976Z,2.90
2019-05-05T03:15:14.300Z,2.90
2019-05-05T03:17:44.554Z,2.90
2019-05-05T03:20:14.607Z,2.90
2019-05-05T03:22:44.619Z,3.00
2019-05-05T03:25:14.353Z,3.00
2019-05-05T03:27:44.577Z,3.10
2019-05-05T03:30:15.431Z,3.20
2019-05-05T03:32:45.826Z,3.30
2019-05-05T03:35:15.539Z,3.30
2019-05-05T03:37:45.164Z,3.40
2019-05-05T03:40:23.902Z,3.40
2019-05-05T03:43:01.227Z,3.50
2019-05-05T03:45:39.838Z,3.60
2019-05-05T03:48:09.743Z,3.60
2019-05-05T03:50:39.440Z,3.70
2019-05-05T03:53:09.233Z,3.80
2019-05-05T03:55:38.818Z,3.80
2019-05-05T03:58:08.611Z,3.90
2019-05-05T04:01:51.803Z,4.10
2019-05-05T04:04:29.210Z,4.20
2019-05-05T04:06:58.862Z,4.30
2019-05-05T04:09:28.459Z,4.40
2019-05-05T04:11:58.124Z,4.50
2019-05-05T04:14:27.695Z,4.60
2019-05-05T04:17:15.087Z,4.70
2019-05-05T04:19:46.954Z,4.80
2019-05-05T04:22:16.587Z,5.00
2019-05-05T04:24:46.173Z,5.10
2019-05-05T04:27:15.792Z,5.40
2019-05-05T04:29:45.404Z,5.60
2019-05-05T04:32:15.019Z,5.60
2019-05-05T04:34:44.606Z,5.90
2019-05-05T04:37:14.954Z,6.10
2019-05-05T04:39:44.720Z,6.20
2019-05-05T04:42:14.350Z,6.30
2019-05-05T04:44:44.882Z,6.40
2019-05-05T04:47:20.666Z,6.40
2019-05-05T04:49:59.648Z,6.50
2019-05-05T04:52:29.592Z,6.50
2019-05-05T04:54:59.182Z,6.50
2019-05-05T04:57:28.791Z,6.60
2019-05-05T04:59:58.397Z,6.50
2019-05-05T05:03:05.092Z,6.50
2019-05-05T05:05:53.738Z,6.40
2019-05-05T05:08:24.709Z,6.40
2019-05-05T05:10:54.454Z,6.30
2019-05-05T05:13:24.618Z,6.40
2019-05-05T05:15:54.265Z,6.50
2019-05-05T05:18:24.233Z,6.40
2019-05-05T05:20:54.856Z,6.60
2019-05-05T05:23:24.951Z,6.70
2019-05-05T05:25:54.628Z,6.90
2019-05-05T05:28:24.258Z,7.00
2019-05-05T05:30:54.535Z,7.30
2019-05-05T05:33:24.243Z,7.40
2019-05-05T05:35:54.628Z,7.60
2019-05-05T05:38:24.675Z,7.80
2019-05-05T05:41:13.671Z,8.00
2019-05-05T05:44:08.086Z,8.10
2019-05-05T05:46:50.938Z,8.20
2019-05-05T05:49:37.721Z,8.40
2019-05-05T05:52:15.895Z,8.50
2019-05-05T05:54:38.544Z,8.50
2019-05-05T05:57:08.155Z,8.80
2019-05-05T05:59:37.757Z,8.70
2019-05-05T06:02:11.801Z,9.00
2019-05-05T06:04:38.741Z,9.30
2019-05-05T06:07:08.382Z,9.20
2019-05-05T06:09:37.983Z,9.30
2019-05-05T06:12:07.597Z,9.60
2019-05-05T06:14:37.211Z,9.70
2019-05-05T06:17:06.791Z,9.90
2019-05-05T06:19:36.400Z,10.00
2019-05-05T06:22:06.036Z,10.20
2019-05-05T06:24:35.660Z,10.30
2019-05-05T06:27:05.276Z,10.40
2019-05-05T06:29:34.900Z,10.40
2019-05-05T06:32:04.592Z,10.70
2019-05-05T06:34:34.196Z,10.90
2019-05-05T06:37:04.213Z,11.10
2019-05-05T06:39:34.028Z,11.30
2019-05-05T06:42:19.536Z,11.50
2019-05-05T06:44:56.059Z,11.50
2019-05-05T06:47:33.879Z,11.60
2019-05-05T06:50:03.697Z,11.70
2019-05-05T06:52:43.778Z,11.60
2019-05-05T06:55:04.929Z,11.80
2019-05-05T06:57:34.530Z,12.00
2019-05-05T07:00:04.503Z,12.10
2019-05-05T07:02:34.312Z,12.20
2019-05-05T07:05:04.205Z,12.40
2019-05-05T07:07:34.385Z,12.40
2019-05-05T07:10:04.150Z,12.40
2019-05-05T07:12:34.725Z,12.70
2019-05-05T07:15:04.815Z,13.00
2019-05-05T07:17:34.495Z,12.80
2019-05-05T07:20:04.596Z,13.00
2019-05-05T07:22:34.687Z,13.20
2019-05-05T07:25:04.884Z,13.30
2019-05-05T07:27:34.563Z,13.40
2019-05-05T07:30:04.903Z,13.40
2019-05-05T07:32:34.709Z,13.60
2019-05-05T07:35:19.464Z,13.70
2019-05-05T07:37:49.071Z,13.60
2019-05-05T07:40:18.691Z,13.40
2019-05-05T07:42:48.371Z,13.70
2019-05-05T07:45:22.823Z,13.50
2019-05-05T07:47:49.344Z,13.50
2019-05-05T07:50:31.661Z,13.70
2019-05-05T07:52:50.344Z,14.00
2019-05-05T07:55:19.963Z,14.30
2019-05-05T07:57:49.576Z,14.40
2019-05-05T08:00:19.201Z,14.40
2019-05-05T08:02:48.884Z,14.30
2019-05-05T08:05:18.490Z,14.10
2019-05-05T08:07:48.165Z,14.20
2019-05-05T08:10:17.983Z,13.70
2019-05-05T08:12:47.624Z,14.00
2019-05-05T08:15:19.039Z,13.90
2019-05-05T08:18:25.751Z,13.60
2019-05-05T08:20:58.080Z,13.50
2019-05-05T08:23:36.796Z,13.80
2019-05-05T08:26:13.715Z,14.20
2019-05-05T08:28:51.267Z,14.40
2019-05-05T08:31:44.411Z,14.60
2019-05-05T08:34:14.317Z,14.60
2019-05-05T08:36:44.674Z,15.30
2019-05-05T08:39:14.410Z,15.70
2019-05-05T08:41:45.345Z,16.20
2019-05-05T08:44:18.050Z,16.10
2019-05-05T08:46:46.647Z,16.20
2019-05-05T08:49:16.312Z,16.10
2019-05-05T08:51:45.966Z,16.40
2019-05-05T08:54:15.603Z,16.80
2019-05-05T08:56:45.287Z,16.90
2019-05-05T08:59:14.928Z,16.50
2019-05-05T09:01:45.008Z,16.80
2019-05-05T09:04:14.708Z,16.90
2019-05-05T09:06:44.305Z,17.50
2019-05-05T09:09:14.521Z,17.80
2019-05-05T09:11:44.217Z,18.30
2019-05-05T09:14:14.887Z,18.60
2019-05-05T09:16:44.955Z,18.40
2019-05-05T09:19:18.116Z,18.50
2019-05-05T09:21:47.747Z,19.10
2019-05-05T09:24:36.253Z,18.70
2019-05-05T09:27:15.015Z,18.30
2019-05-05T09:29:44.644Z,18.30
2019-05-05T09:32:14.260Z,18.80
2019-05-05T09:34:43.896Z,18.90
2019-05-05T09:37:14.383Z,18.90
2019-05-05T09:39:44.135Z,18.60
2019-05-05T09:42:14.491Z,19.10
2019-05-05T09:44:44.362Z,18.70
2019-05-05T09:47:14.008Z,18.80
2019-05-05T09:49:44.547Z,18.80
2019-05-05T09:52:14.376Z,18.30
2019-05-05T09:54:44.091Z,18.20
2019-05-05T09:57:14.533Z,18.50
2019-05-05T09:59:44.440Z,19.00
2019-05-05T10:02:14.083Z,18.50
2019-05-05T10:04:44.082Z,19.10
2019-05-05T10:07:13.945Z,19.50
2019-05-05T10:09:43.884Z,19.60
2019-05-05T10:12:13.596Z,19.90
2019-05-05T10:14:44.880Z,19.80
2019-05-05T10:17:14.697Z,19.90
2019-05-05T10:19:44.303Z,20.10
2019-05-05T10:22:14.767Z,19.60
2019-05-05T10:24:55.171Z,20.00
2019-05-05T10:27:24.081Z,20.70
2019-05-05T10:29:54.722Z,20.80
2019-05-05T10:32:24.647Z,19.60
2019-05-05T10:35:04.445Z,19.90
2019-05-05T10:37:34.731Z,20.50
2019-05-05T10:40:04.803Z,20.90
2019-05-05T10:42:53.981Z,21.00
2019-05-05T10:45:24.747Z,21.50
2019-05-05T10:47:54.638Z,21.30
2019-05-05T10:50:24.816Z,21.00
2019-05-05T10:52:54.537Z,20.90
2019-05-05T10:55:24.268Z,20.40
2019-05-05T10:57:54.527Z,20.80
2019-05-05T11:00:44.131Z,20.60
2019-05-05T11:03:14.791Z,20.50
2019-05-05T11:05:45.332Z,20.40
2019-05-05T11:08:15.049Z,20.10
2019-05-05T11:10:45.221Z,20.00
2019-05-05T11:13:14.902Z,19.90
2019-05-05T11:15:44.676Z,20.00
2019-05-05T11:18:15.007Z,19.80
2019-05-05T11:20:44.998Z,20.10
2019-05-05T11:23:15.325Z,20.60
2019-05-05T11:25:45.073Z,21.00
2019-05-05T11:28:14.719Z,21.30
2019-05-05T11:30:45.630Z,21.50
2019-05-05T11:33:36.266Z,21.20
2019-05-05T11:36:17.067Z,20.20
2019-05-05T11:38:46.689Z,19.50
2019-05-05T11:41:16.302Z,19.80
2019-05-05T11:43:45.899Z,20.60
2019-05-05T11:46:15.539Z,21.30
2019-05-05T11:48:45.160Z,21.10
2019-05-05T11:51:15.228Z,20.90
2019-05-05T11:53:44.968Z,20.30
2019-05-05T11:56:14.750Z,19.50
2019-05-05T11:58:44.490Z,18.90
2019-05-05T12:01:14.293Z,19.30
2019-05-05T12:03:44.479Z,18.80
2019-05-05T12:06:14.833Z,18.70
2019-05-05T12:08:45.969Z,18.40
2019-05-05T12:11:15.966Z,18.80
2019-05-05T12:13:45.580Z,18.90
2019-05-05T12:16:29.821Z,18.60
2019-05-05T12:19:00.803Z,19.00
2019-05-05T12:21:30.384Z,18.50
2019-05-05T12:24:03.871Z,18.50
2019-05-05T12:26:47.439Z,19.10
2019-05-05T12:29:24.545Z,18.90
2019-05-05T12:31:54.237Z,19.20
2019-05-05T12:34:23.863Z,19.60
2019-05-05T12:36:54.095Z,19.90
2019-05-05T12:39:23.752Z,20.00
2019-05-05T12:41:54.324Z,20.60
2019-05-05T12:44:37.909Z,20.60
2019-05-05T12:47:18.105Z,20.70
2019-05-05T12:49:47.748Z,20.90
2019-05-05T12:52:17.338Z,20.30
2019-05-05T12:54:46.955Z,19.30
2019-05-05T12:57:16.595Z,18.60
2019-05-05T12:59:46.218Z,18.30
2019-05-05T13:02:15.867Z,17.90
2019-05-05T13:04:45.493Z,17.50
2019-05-05T13:07:15.094Z,17.20
2019-05-05T13:09:44.700Z,17.10
2019-05-05T13:12:15.019Z,17.50
2019-05-05T13:14:44.767Z,17.50
2019-05-05T13:17:14.413Z,17.30
2019-05-05T13:19:58.869Z,17.00
2019-05-05T13:22:56.596Z,17.10
2019-05-05T13:25:55.972Z,16.70
2019-05-05T13:28:23.817Z,16.30
2019-05-05T13:30:54.053Z,15.80
2019-05-05T13:33:24.644Z,15.60
2019-05-05T13:35:54.392Z,15.20
2019-05-05T13:38:24.108Z,15.00
2019-05-05T13:40:54.417Z,15.20
2019-05-05T13:43:24.058Z,15.20
2019-05-05T13:46:02.144Z,15.10
2019-05-05T13:48:33.356Z,15.30
2019-05-05T13:51:04.396Z,15.20
2019-05-05T13:53:34.326Z,15.20
2019-05-05T13:56:11.929Z,15.10
2019-05-05T13:58:35.587Z,15.20
2019-05-05T14:01:05.367Z,15.10
2019-05-05T14:03:34.997Z,15.30
2019-05-05T14:06:04.869Z,15.30
2019-05-05T14:08:36.380Z,15.10
2019-05-05T14:11:05.730Z,14.80
2019-05-05T14:13:35.475Z,14.60
2019-05-05T14:16:05.104Z,14.60
2019-05-05T14:18:34.721Z,14.60
2019-05-05T14:21:04.431Z,14.40
2019-05-05T14:23:54.531Z,14.20
2019-05-05T14:26:28.034Z,14.10
2019-05-05T14:28:55.726Z,14.30
2019-05-05T14:31:29.979Z,14.40
2019-05-05T14:34:01.430Z,14.50
2019-05-05T14:36:46.072Z,14.60
2019-05-05T14:39:16.415Z,15.00
2019-05-05T14:41:46.040Z,14.90
2019-05-05T14:44:15.700Z,14.80
2019-05-05T14:46:45.360Z,14.70
2019-05-05T14:49:14.971Z,14.90
2019-05-05T14:51:44.795Z,15.10
2019-05-05T14:54:14.973Z,15.60
2019-05-05T14:56:44.598Z,16.10
2019-05-05T14:59:14.386Z,16.80
2019-05-05T15:01:44.754Z,17.60
2019-05-05T15:04:16.122Z,17.70
2019-05-05T15:07:14.477Z,18.50
2019-05-05T15:10:09.061Z,18.50
2019-05-05T15:12:44.751Z,18.60
2019-05-05T15:15:14.583Z,18.00
2019-05-05T15:17:44.221Z,17.20
2019-05-05T15:20:14.121Z,16.80
2019-05-05T15:22:43.780Z,16.50
2019-05-05T15:25:13.525Z,16.10
2019-05-05T15:27:45.023Z,15.70
2019-05-05T15:30:14.538Z,15.40
2019-05-05T15:32:44.263Z,15.30
2019-05-05T15:35:14.386Z,15.10
2019-05-05T15:37:44.058Z,14.90
2019-05-05T15:40:14.310Z,14.90
2019-05-05T15:42:44.084Z,15.00
2019-05-05T15:45:14.280Z,14.70
2019-05-05T15:47:43.942Z,14.60
2019-05-05T15:50:14.097Z,14.30
2019-05-05T15:52:44.193Z,14.20
2019-05-05T15:55:15.187Z,14.00
2019-05-05T15:57:44.836Z,14.00
2019-05-05T16:00:14.750Z,13.80
2019-05-05T16:02:44.408Z,13.60
2019-05-05T16:05:14.201Z,13.60
2019-05-05T16:07:44.095Z,13.70
2019-05-05T16:10:14.176Z,13.50
2019-05-05T16:12:44.990Z,13.00
2019-05-05T16:15:50.623Z,12.30
2019-05-05T16:18:31.256Z,12.00
2019-05-05T16:21:15.094Z,11.70
2019-05-05T16:23:47.876Z,11.90
2019-05-05T16:26:17.482Z,11.80
2019-05-05T16:28:47.149Z,11.70
2019-05-05T16:31:16.753Z,11.60
2019-05-05T16:33:48.601Z,11.40
2019-05-05T16:36:17.639Z,11.30
2019-05-05T16:38:47.264Z,11.20
2019-05-05T16:41:16.943Z,11.00
2019-05-05T16:43:46.571Z,10.70
2019-05-05T16:46:17.028Z,10.80
2019-05-05T16:48:46.820Z,10.70
2019-05-05T16:51:18.429Z,10.60
2019-05-05T16:53:48.057Z,10.50
2019-05-05T16:56:17.716Z,10.30
2019-05-05T16:58:47.351Z,10.50
2019-05-05T17:01:17.388Z,10.30
2019-05-05T17:03:46.985Z,10.30
2019-05-05T17:06:16.613Z,10.30
2019-05-05T17:08:46.229Z,10.30
2019-05-05T17:11:15.849Z,10.20
2019-05-05T17:14:03.806Z,10.00
2019-05-05T17:16:44.257Z,10.20
2019-05-05T17:19:20.908Z,10.30
2019-05-05T17:22:27.583Z,10.30
2019-05-05T17:24:58.516Z,10.10
2019-05-05T17:27:28.148Z,9.90
2019-05-05T17:29:57.752Z,9.90
2019-05-05T17:32:27.377Z,9.70
2019-05-05T17:34:56.984Z,9.50
2019-05-05T17:37:26.597Z,9.50
2019-05-05T17:40:01.333Z,9.50
2019-05-05T17:42:53.602Z,9.50
2019-05-05T17:45:31.249Z,9.50
2019-05-05T17:48:15.256Z,9.40
2019-05-05T17:51:01.425Z,9.30
2019-05-05T17:53:46.055Z,9.20
2019-05-05T17:56:15.671Z,9.20
2019-05-05T17:58:45.304Z,9.00
2019-05-05T18:01:14.886Z,9.00
2019-05-05T18:03:44.571Z,9.00
2019-05-05T18:06:31.695Z,8.80
2019-05-05T18:09:14.368Z,8.90
2019-05-05T18:12:09.580Z,9.00
2019-05-05T18:14:39.297Z,8.70
2019-05-05T18:17:08.890Z,8.80
2019-05-05T18:19:38.548Z,8.80
2019-05-05T18:22:08.170Z,8.70
2019-05-05T18:24:37.821Z,8.70
2019-05-05T18:27:07.466Z,8.50
2019-05-05T18:29:37.367Z,8.50
2019-05-05T18:32:06.985Z,8.40
2019-05-05T18:34:36.646Z,8.30
2019-05-05T18:37:06.349Z,8.40
2019-05-05T18:39:35.973Z,8.30
2019-05-05T18:42:13.990Z,8.40
2019-05-05T18:44:45.610Z,8.30
2019-05-05T18:47:19.199Z,8.20
2019-05-05T18:49:48.813Z,8.20
2019-05-05T18:52:18.553Z,8.00
2019-05-05T18:54:48.170Z,8.00
2019-05-05T18:57:18.240Z,8.00
2019-05-05T18:59:47.862Z,7.80
2019-05-05T19:02:44.120Z,7.90
2019-05-05T19:05:26.631Z,8.00
2019-05-05T19:08:15.276Z,7.90
2019-05-05T19:10:44.939Z,8.00
2019-05-05T19:13:14.629Z,8.10
2019-05-05T19:15:44.381Z,8.10
2019-05-05T19:18:14.148Z,8.00
2019-05-05T19:21:14.495Z,7.90
2019-05-05T19:23:44.712Z,8.00
2019-05-05T19:26:14.575Z,7.90
2019-05-05T19:28:47.448Z,7.80
2019-05-05T19:31:15.518Z,7.70
2019-05-05T19:33:45.155Z,7.70
2019-05-05T19:36:14.786Z,7.80
2019-05-05T19:38:44.389Z,7.70
2019-05-05T19:41:14.459Z,7.90
2019-05-05T19:43:54.802Z,7.60
2019-05-05T19:46:30.239Z,7.70
2019-05-05T19:49:15.772Z,7.70
2019-05-05T19:51:45.431Z,7.70
2019-05-05T19:54:15.054Z,7.70
2019-05-05T19:56:44.921Z,7.60
2019-05-05T19:59:14.609Z,7.60
2019-05-05T20:01:44.941Z,7.50
2019-05-05T20:04:14.893Z,7.50
2019-05-05T20:06:44.572Z,7.50
2019-05-05T20:09:14.504Z,7.50
2019-05-05T20:11:44.171Z,7.50
2019-05-05T20:14:15.195Z,7.60
2019-05-05T20:17:04.482Z,7.40
2019-05-05T20:19:38.854Z,7.50
2019-05-05T20:22:08.496Z,7.50
2019-05-05T20:24:38.111Z,7.60
2019-05-05T20:27:07.741Z,7.60
2019-05-05T20:29:37.611Z,7.50
2019-05-05T20:32:07.316Z,7.60
2019-05-05T20:34:41.746Z,7.70
2019-05-05T20:37:14.146Z,7.70
2019-05-05T20:39:44.176Z,7.70
2019-05-05T20:42:14.938Z,7.70
2019-05-05T20:44:44.724Z,7.60
2019-05-05T20:47:14.776Z,7.60
2019-05-05T20:49:44.529Z,7.70
2019-05-05T20:52:14.268Z,7.50
2019-05-05T20:54:44.175Z,7.60
2019-05-05T20:57:13.818Z,7.60
2019-05-05T20:59:44.511Z,7.60
2019-05-05T21:02:14.216Z,7.60
2019-05-05T21:04:44.526Z,7.60
2019-05-05T21:07:14.249Z,7.60
2019-05-05T21:09:43.883Z,7.60
2019-05-05T21:12:13.897Z,7.70
2019-05-05T21:14:44.642Z,7.50
2019-05-05T21:17:14.392Z,7.50
2019-05-05T21:19:44.114Z,7.40
2019-05-05T21:22:30.458Z,7.40
2019-05-05T21:25:00.055Z,7.40
2019-05-05T21:27:29.664Z,7.40
2019-05-05T21:29:59.294Z,7.30
2019-05-05T21:32:28.909Z,7.30
2019-05-05T21:34:58.544Z,7.30
2019-05-05T21:37:28.167Z,7.30
2019-05-05T21:39:57.782Z,7.50
2019-05-05T21:42:27.390Z,7.50
2019-05-05T21:44:57.038Z,7.40
2019-05-05T21:47:26.616Z,7.40
2019-05-05T21:49:56.240Z,7.30
2019-05-05T21:52:37.878Z,7.30
2019-05-05T21:55:24.466Z,7.30
2019-05-05T21:58:04.342Z,7.30
2019-05-05T22:00:51.502Z,7.20
2019-05-05T22:03:28.758Z,7.20
2019-05-05T22:05:58.392Z,7.10
2019-05-05T22:08:27.970Z,7.30
2019-05-05T22:10:57.575Z,7.30
2019-05-05T22:13:27.222Z,7.40
2019-05-05T22:15:56.855Z,7.60
2019-05-05T22:18:26.574Z,7.60
2019-05-05T22:21:17.107Z,7.50
2019-05-05T22:24:05.595Z,7.30
2019-05-05T22:26:35.224Z,7.30
2019-05-05T22:29:04.923Z,7.30
2019-05-05T22:31:34.725Z,7.00
2019-05-05T22:34:05.366Z,6.90
2019-05-05T22:36:34.960Z,7.00
2019-05-05T22:39:05.924Z,7.00
2019-05-05T22:41:35.550Z,6.80
2019-05-05T22:44:05.470Z,6.80
2019-05-05T22:46:35.192Z,6.80
2019-05-05T22:49:04.921Z,6.80
2019-05-05T22:51:34.517Z,6.80
2019-05-05T22:54:04.243Z,6.90
2019-05-05T22:56:33.880Z,6.80
2019-05-05T22:59:04.301Z,6.90
2019-05-05T23:01:34.050Z,7.00
2019-05-05T23:04:21.161Z,7.10
2019-05-05T23:06:54.866Z,7.20
2019-05-05T23:09:24.785Z,7.10
2019-05-05T23:11:54.625Z,7.00
2019-05-05T23:14:30.450Z,7.10
2019-05-05T23:17:26.215Z,7.00
2019-05-05T23:20:00.929Z,7.00
2019-05-05T23:22:44.168Z,6.90
2019-05-05T23:25:20.341Z,6.90
2019-05-05T23:27:50.744Z,6.80
2019-05-05T23:30:23.795Z,6.90
2019-05-05T23:32:54.818Z,6.90
2019-05-05T23:35:24.559Z,6.90
2019-05-05T23:37:55.289Z,6.90
2019-05-05T23:40:26.348Z,6.90
2019-05-05T23:42:55.943Z,6.80
2019-05-05T23:45:25.682Z,6.80
2019-05-05T23:47:55.278Z,6.90
2019-05-05T23:50:24.978Z,6.90
2019-05-05T23:52:54.876Z,6.80
2019-05-05T23:55:24.442Z,6.80
2019-05-05T23:57:54.877Z,6.80
